Time;durP1;ratioP1;P1;durP2;ratioP2;P2;SDS_P1;SDS_P2;PMS_P1;PMS_P2;Temp;Humidity;BMP_temperature;BMP_pressure;BME280_temperature;BME280_humidity;BME280_pressure;Samples;Min_cycle;Max_cycle;Signal;HPM_P1;HPM_P2
2021/12/28 00:02:22;;;;;;;8.50;6.40;;;4.80;99.90;;;;;;4983284;28;20120;-79
2021/12/28 00:04:48;;;;;;;7.03;4.90;;;4.80;99.90;;;;;;4967408;28;20098;-79
2021/12/28 00:07:14;;;;;;;7.07;5.63;;;4.80;99.90;;;;;;4984290;28;20046;-79
2021/12/28 00:09:39;;;;;;;9.45;5.72;;;4.80;99.90;;;;;;4984078;28;20061;-79
2021/12/28 00:12:05;;;;;;;7.57;6.88;;;4.80;99.90;;;;;;4983782;28;20259;-79
2021/12/28 00:14:36;;;;;;;6.55;5.70;;;4.80;99.90;;;;;;4983968;28;20047;-79
2021/12/28 00:19:47;;;;;;;9.38;5.88;;;4.80;99.90;;;;;;4984366;28;20058;-79
2021/12/28 00:22:13;;;;;;;7.53;6.80;;;4.80;99.90;;;;;;4983926;28;20050;-79
2021/12/28 00:24:38;;;;;;;8.05;7.00;;;4.80;99.90;;;;;;4983840;28;20369;-79
2021/12/28 00:27:04;;;;;;;7.22;6.55;;;4.80;99.90;;;;;;4983786;28;20046;-79
2021/12/28 00:29:30;;;;;;;7.82;7.15;;;4.80;99.90;;;;;;4991310;28;20536;-79
2021/12/28 00:31:56;;;;;;;6.13;5.57;;;4.80;99.90;;;;;;5002163;28;20050;-78
2021/12/28 00:34:22;;;;;;;6.60;5.78;;;4.80;99.90;;;;;;5003536;28;20044;-79
2021/12/28 00:36:47;;;;;;;7.57;6.88;;;4.80;99.90;;;;;;4985818;28;20038;-78
2021/12/28 00:39:13;;;;;;;5.97;5.63;;;4.90;99.90;;;;;;5001834;28;20060;-79
2021/12/28 00:41:39;;;;;;;11.38;10.40;;;4.90;99.90;;;;;;5003207;28;20054;-79
2021/12/28 00:44:04;;;;;;;7.28;6.63;;;4.90;99.90;;;;;;5002686;28;20048;-79
2021/12/28 00:46:30;;;;;;;7.90;5.78;;;4.90;99.90;;;;;;5003225;28;20096;-79
2021/12/28 00:48:56;;;;;;;5.30;4.80;;;4.90;99.90;;;;;;5001782;28;20396;-79
2021/12/28 00:51:21;;;;;;;8.80;8.05;;;4.90;99.90;;;;;;5003143;28;20415;-79
2021/12/28 00:53:47;;;;;;;5.55;5.05;;;4.90;99.90;;;;;;5002463;28;20543;-79
2021/12/28 00:56:12;;;;;;;8.35;7.35;;;4.90;99.90;;;;;;5002214;28;20089;-79
2021/12/28 00:58:38;;;;;;;14.23;8.55;;;4.90;99.90;;;;;;5002776;28;20038;-79
2021/12/28 01:01:05;;;;;;;9.27;8.57;;;4.90;99.90;;;;;;5002695;28;20303;-79
2021/12/28 01:03:34;;;;;;;8.88;8.13;;;4.90;99.90;;;;;;5002092;28;20034;-78
2021/12/28 01:06:01;;;;;;;8.15;5.28;;;5.00;99.90;;;;;;5002633;28;20053;-79
2021/12/28 01:08:27;;;;;;;8.02;7.22;;;4.90;99.90;;;;;;5002240;28;20342;-79
2021/12/28 01:10:57;;;;;;;7.65;6.82;;;5.00;99.90;;;;;;5002457;28;20046;-79
2021/12/28 01:13:24;;;;;;;10.55;7.47;;;5.00;99.90;;;;;;5002096;28;20050;-79
2021/12/28 01:15:50;;;;;;;7.50;6.93;;;5.00;99.90;;;;;;5003089;28;20146;-79
2021/12/28 01:18:16;;;;;;;11.38;8.50;;;5.00;99.90;;;;;;5002282;28;20038;-79
2021/12/28 01:20:43;;;;;;;57.75;7.43;;;5.10;99.90;;;;;;5002528;28;20053;-79
2021/12/28 01:23:09;;;;;;;13.55;7.80;;;5.10;99.90;;;;;;5002240;28;20488;-79
2021/12/28 01:25:35;;;;;;;11.50;7.85;;;5.10;99.90;;;;;;4984959;28;20061;-79
2021/12/28 01:28:00;;;;;;;10.07;8.23;;;5.20;99.90;;;;;;5001826;28;20516;-79
2021/12/28 01:30:28;;;;;;;11.75;8.50;;;5.20;99.90;;;;;;4987196;28;20331;-79
2021/12/28 01:32:57;;;;;;;9.85;8.27;;;5.20;99.90;;;;;;4981202;28;20661;-79
2021/12/28 01:35:23;;;;;;;17.70;8.07;;;5.20;99.90;;;;;;4982906;28;20104;-79
2021/12/28 01:37:49;;;;;;;10.93;7.47;;;5.20;99.90;;;;;;4982811;28;20042;-79
2021/12/28 01:40:19;;;;;;;22.67;11.43;;;5.30;99.90;;;;;;4982436;28;20157;-79
2021/12/28 01:43:00;;;;;;;7.90;6.97;;;5.30;99.90;;;;;;4982315;28;20053;-79
2021/12/28 01:45:50;;;;;;;10.85;8.23;;;5.30;99.90;;;;;;4982652;28;20050;-79
2021/12/28 01:48:25;;;;;;;10.38;9.40;;;5.30;99.90;;;;;;4948279;28;20520;-78
2021/12/28 01:50:55;;;;;;;17.80;10.02;;;5.30;99.90;;;;;;4982129;28;20042;-79
2021/12/28 01:53:22;;;;;;;10.15;9.15;;;5.40;99.90;;;;;;4982377;28;20137;-79
2021/12/28 01:55:52;;;;;;;6.60;6.20;;;5.40;99.90;;;;;;4982827;28;20048;-79
2021/12/28 01:58:18;;;;;;;13.25;10.27;;;5.40;99.90;;;;;;4982941;28;20097;-79
2021/12/28 02:00:46;;;;;;;15.20;8.90;;;5.40;99.90;;;;;;4982276;28;20034;-79
2021/12/28 02:03:14;;;;;;;10.25;9.23;;;5.40;99.90;;;;;;4980670;28;20121;-79
2021/12/28 02:05:41;;;;;;;6.47;5.90;;;5.40;99.90;;;;;;4982208;28;20050;-79
2021/12/28 02:08:09;;;;;;;10.63;7.07;;;5.40;99.90;;;;;;4981604;28;20556;-79
2021/12/28 02:10:36;;;;;;;18.48;9.80;;;5.50;99.90;;;;;;4982024;28;20054;-79
2021/12/28 02:13:03;;;;;;;11.75;7.95;;;5.50;99.90;;;;;;4964061;28;20051;-79
2021/12/28 02:15:28;;;;;;;7.25;6.65;;;5.50;99.90;;;;;;4985283;23;20474;-79
2021/12/28 02:17:54;;;;;;;6.63;6.07;;;5.50;99.90;;;;;;5001695;28;20042;-79
2021/12/28 02:20:21;;;;;;;8.15;7.55;;;5.50;99.90;;;;;;5003253;28;20049;-79
2021/12/28 02:22:47;;;;;;;9.52;8.60;;;5.50;99.90;;;;;;5003263;28;20042;-79
2021/12/28 02:25:14;;;;;;;7.75;7.07;;;5.50;99.90;;;;;;5002410;28;20218;-79
2021/12/28 02:27:40;;;;;;;10.82;6.85;;;5.50;99.90;;;;;;5002697;28;20471;-79
2021/12/28 02:30:10;;;;;;;11.20;9.73;;;5.50;99.90;;;;;;5000631;28;20069;-79
2021/12/28 02:32:41;;;;;;;10.10;7.22;;;5.60;99.90;;;;;;5001681;28;20103;-79
2021/12/28 02:35:10;;;;;;;8.02;7.28;;;5.60;99.90;;;;;;5002425;28;20049;-79
2021/12/28 02:37:35;;;;;;;11.15;10.00;;;5.60;99.90;;;;;;5001000;28;20049;-79
2021/12/28 02:40:02;;;;;;;8.43;7.68;;;5.60;99.90;;;;;;4984591;28;20034;-79
2021/12/28 02:42:28;;;;;;;8.65;8.05;;;5.60;99.90;;;;;;5002239;28;20045;-79
2021/12/28 02:45:09;;;;;;;10.15;8.88;;;5.60;99.90;;;;;;5002430;28;20041;-79
2021/12/28 02:47:39;;;;;;;10.40;9.52;;;5.60;99.90;;;;;;5001137;28;20057;-79
2021/12/28 02:50:09;;;;;;;8.02;7.43;;;5.60;99.90;;;;;;5000949;28;20695;-79
2021/12/28 02:52:39;;;;;;;9.27;8.45;;;5.60;99.90;;;;;;5001074;28;20053;-79
2021/12/28 02:55:08;;;;;;;41.00;10.70;;;5.60;99.90;;;;;;5001755;28;20041;-79
2021/12/28 02:57:34;;;;;;;6.25;5.75;;;5.50;99.90;;;;;;5001114;28;20061;-79
2021/12/28 03:00:00;;;;;;;7.97;7.13;;;5.50;99.90;;;;;;5001920;28;20484;-79
2021/12/28 03:02:26;;;;;;;14.73;9.82;;;5.50;99.90;;;;;;5001350;28;20046;-79
2021/12/28 03:04:52;;;;;;;10.07;9.13;;;5.60;99.90;;;;;;5000034;28;20559;-79
2021/12/28 03:07:17;;;;;;;10.80;9.52;;;5.60;99.90;;;;;;5001137;28;20060;-79
2021/12/28 03:09:43;;;;;;;5.88;5.40;;;5.50;99.90;;;;;;5002057;28;20045;-79
2021/12/28 03:12:09;;;;;;;8.13;6.57;;;5.60;99.90;;;;;;5000678;28;20548;-79
2021/12/28 03:14:36;;;;;;;9.07;7.93;;;5.60;99.90;;;;;;5001842;28;20090;-79
2021/12/28 03:17:03;;;;;;;10.55;9.63;;;5.60;99.90;;;;;;5000080;28;20065;-79
2021/12/28 03:19:29;;;;;;;27.55;9.55;;;5.60;99.90;;;;;;5001860;28;20064;-79
2021/12/28 03:21:57;;;;;;;18.77;7.85;;;5.70;99.90;;;;;;5000215;28;20535;-79
2021/12/28 03:24:23;;;;;;;10.20;7.15;;;5.70;99.90;;;;;;5001536;28;20042;-79
2021/12/28 03:26:48;;;;;;;12.27;7.45;;;5.70;99.90;;;;;;5000810;28;20046;-79
2021/12/28 03:29:14;;;;;;;15.30;5.55;;;5.70;99.90;;;;;;5000370;28;20119;-79
2021/12/28 03:31:39;;;;;;;7.85;7.10;;;5.70;99.90;;;;;;5000663;28;20120;-79
2021/12/28 03:34:05;;;;;;;17.73;6.90;;;5.70;99.90;;;;;;4999895;28;20068;-79
2021/12/28 03:36:31;;;;;;;11.35;10.20;;;5.70;99.90;;;;;;5001604;28;20488;-79
2021/12/28 03:38:58;;;;;;;9.60;7.03;;;5.80;99.90;;;;;;5001341;28;20069;-79
2021/12/28 03:41:26;;;;;;;8.20;7.50;;;5.80;99.90;;;;;;5000083;28;20054;-79
2021/12/28 03:43:54;;;;;;;8.27;7.60;;;5.80;99.90;;;;;;5000180;28;20046;-79
2021/12/28 03:46:21;;;;;;;6.57;5.70;;;5.80;99.90;;;;;;5001294;28;20070;-79
2021/12/28 03:48:46;;;;;;;11.43;8.63;;;5.80;99.90;;;;;;5002116;28;20096;-79
2021/12/28 03:51:13;;;;;;;8.90;7.60;;;5.70;99.90;;;;;;5001490;28;20436;-79
2021/12/28 03:53:38;;;;;;;5.57;5.20;;;5.80;99.90;;;;;;5001195;28;20050;-79
2021/12/28 03:56:07;;;;;;;11.02;7.32;;;5.70;99.90;;;;;;5001074;28;20030;-79
2021/12/28 03:58:33;;;;;;;9.25;8.18;;;5.70;99.90;;;;;;5001349;28;20049;-79
2021/12/28 04:01:00;;;;;;;7.13;6.45;;;5.70;99.90;;;;;;5000108;28;20103;-79
2021/12/28 04:03:25;;;;;;;9.38;8.38;;;5.70;99.90;;;;;;5000862;28;20137;-79
2021/12/28 04:05:51;;;;;;;7.45;6.35;;;5.80;99.90;;;;;;5000951;28;20128;-79
2021/12/28 04:08:21;;;;;;;7.05;6.47;;;5.80;99.90;;;;;;5016791;28;20462;-79
2021/12/28 04:11:01;;;;;;;26.65;7.30;;;5.80;99.90;;;;;;5001994;28;20168;-79
2021/12/28 04:13:26;;;;;;;9.80;8.85;;;5.80;99.90;;;;;;5000130;28;20581;-79
2021/12/28 04:15:52;;;;;;;7.60;7.00;;;5.80;99.90;;;;;;4999176;28;20058;-79
2021/12/28 04:18:19;;;;;;;11.35;8.57;;;5.80;99.90;;;;;;5000798;28;20480;-79
2021/12/28 04:20:45;;;;;;;18.30;9.27;;;5.80;99.90;;;;;;5001193;28;20038;-79
2021/12/28 04:23:10;;;;;;;9.40;8.60;;;5.80;99.90;;;;;;4999597;28;20057;-79
2021/12/28 04:25:36;;;;;;;10.82;7.43;;;5.90;99.90;;;;;;4999853;28;20049;-79
2021/12/28 04:28:02;;;;;;;9.85;8.05;;;5.90;99.90;;;;;;5000892;28;20120;-79
2021/12/28 04:30:28;;;;;;;13.82;9.88;;;5.90;99.90;;;;;;5004984;28;20045;-79
2021/12/28 04:32:54;;;;;;;6.57;5.97;;;5.90;99.90;;;;;;5003772;28;20041;-79
2021/12/28 04:35:19;;;;;;;12.32;5.88;;;5.90;99.90;;;;;;5004825;28;20041;-79
2021/12/28 04:37:45;;;;;;;10.35;7.97;;;5.90;99.90;;;;;;5004575;28;20041;-79
2021/12/28 04:40:12;;;;;;;8.77;7.95;;;6.00;99.90;;;;;;5004368;28;20598;-79
2021/12/28 04:42:39;;;;;;;7.03;6.32;;;6.00;99.90;;;;;;5004980;28;20046;-79
2021/12/28 04:45:09;;;;;;;18.38;9.23;;;6.00;99.90;;;;;;5004240;28;20034;-79
2021/12/28 04:47:35;;;;;;;38.20;7.35;;;5.90;99.90;;;;;;5002180;28;20489;-79
2021/12/28 04:50:00;;;;;;;9.07;7.72;;;5.90;99.90;;;;;;5003888;28;20068;-79
2021/12/28 04:52:29;;;;;;;10.70;7.88;;;6.00;99.90;;;;;;5004522;28;20492;-79
2021/12/28 04:54:54;;;;;;;11.70;7.50;;;6.00;99.90;;;;;;5004251;28;20117;-79
2021/12/28 04:57:20;;;;;;;8.23;5.07;;;6.00;99.90;;;;;;5004470;28;20474;-79
2021/12/28 04:59:45;;;;;;;11.43;7.97;;;6.00;99.90;;;;;;5004647;28;20060;-79
2021/12/28 05:02:11;;;;;;;11.13;5.55;;;5.90;99.90;;;;;;5003008;28;20050;-79
2021/12/28 05:04:37;;;;;;;6.72;6.07;;;6.00;99.90;;;;;;5003553;28;20034;-79
2021/12/28 05:07:02;;;;;;;8.85;5.95;;;5.90;99.90;;;;;;5004068;28;20100;-79
2021/12/28 05:09:28;;;;;;;5.50;5.05;;;5.90;99.90;;;;;;5002796;28;20092;-79
2021/12/28 05:11:53;;;;;;;7.95;7.43;;;5.90;99.90;;;;;;5003976;28;20479;-79
2021/12/28 05:14:20;;;;;;;29.60;6.63;;;5.90;99.90;;;;;;5004027;28;20133;-79
2021/12/28 05:16:46;;;;;;;6.80;5.70;;;5.90;99.90;;;;;;5002118;28;20053;-79
2021/12/28 05:19:14;;;;;;;10.07;7.35;;;5.90;99.90;;;;;;5003403;28;20062;-79
2021/12/28 05:21:40;;;;;;;20.10;6.18;;;5.80;99.90;;;;;;5003727;28;20099;-79
2021/12/28 05:24:06;;;;;;;19.25;6.57;;;5.80;99.90;;;;;;5002565;28;20042;-79
2021/12/28 05:26:32;;;;;;;15.85;7.28;;;5.80;99.90;;;;;;5003629;28;20038;-79
2021/12/28 05:28:57;;;;;;;8.45;7.70;;;5.80;99.90;;;;;;5003231;28;20448;-79
2021/12/28 05:31:26;;;;;;;7.68;6.88;;;5.80;99.90;;;;;;5002594;28;20046;-79
2021/12/28 05:33:53;;;;;;;7.65;6.90;;;5.80;99.90;;;;;;5002946;28;20038;-79
2021/12/28 05:36:20;;;;;;;5.20;4.80;;;5.80;99.90;;;;;;5004241;28;20046;-79
2021/12/28 05:38:46;;;;;;;5.78;5.32;;;5.80;99.90;;;;;;5003943;28;20038;-79
2021/12/28 05:41:11;;;;;;;20.13;6.55;;;5.70;99.90;;;;;;5002476;28;20045;-79
2021/12/28 05:43:37;;;;;;;5.65;4.82;;;5.80;99.90;;;;;;5003269;28;20038;-79
2021/12/28 05:46:02;;;;;;;14.10;6.88;;;5.80;99.90;;;;;;5002037;28;20038;-79
2021/12/28 05:48:28;;;;;;;25.25;6.53;;;5.80;99.90;;;;;;5002022;28;20054;-79
2021/12/28 05:50:54;;;;;;;5.25;4.85;;;5.70;99.90;;;;;;5001944;28;20053;-79
2021/12/28 05:53:20;;;;;;;8.93;6.38;;;5.80;99.90;;;;;;5002184;28;20045;-79
2021/12/28 05:55:45;;;;;;;6.63;6.07;;;5.70;99.90;;;;;;5002410;28;20503;-79
2021/12/28 05:58:11;;;;;;;7.25;5.30;;;5.80;99.90;;;;;;5001744;28;20053;-79
2021/12/28 06:00:37;;;;;;;4.47;3.92;;;5.70;99.90;;;;;;5003085;28;20052;-79
2021/12/28 06:03:03;;;;;;;6.93;4.82;;;5.70;99.90;;;;;;5000991;28;20061;-79
2021/12/28 06:05:29;;;;;;;4.65;4.40;;;5.70;99.90;;;;;;5002899;28;20042;-79
2021/12/28 06:07:54;;;;;;;4.95;4.32;;;5.70;99.90;;;;;;5002705;28;20643;-79
2021/12/28 06:10:20;;;;;;;3.63;3.42;;;5.70;99.90;;;;;;5003069;28;20753;-79
2021/12/28 06:12:45;;;;;;;12.50;6.20;;;5.70;99.90;;;;;;5003127;28;20072;-79
2021/12/28 06:15:12;;;;;;;8.07;4.63;;;5.70;99.90;;;;;;5002563;28;20508;-79
2021/12/28 06:17:38;;;;;;;20.00;5.72;;;5.70;99.90;;;;;;5001761;28;20100;-79
2021/12/28 06:20:05;;;;;;;4.50;4.10;;;5.70;99.90;;;;;;5001621;28;20049;-79
2021/12/28 06:22:31;;;;;;;6.85;6.35;;;5.80;99.90;;;;;;5001148;28;20089;-79
2021/12/28 06:24:57;;;;;;;7.57;6.97;;;5.70;99.90;;;;;;5002320;28;20077;-79
2021/12/28 06:27:22;;;;;;;6.85;6.22;;;5.80;99.90;;;;;;5002566;28;20050;-79
2021/12/28 06:29:48;;;;;;;5.93;5.22;;;5.70;99.90;;;;;;5001296;28;20046;-79
2021/12/28 06:32:14;;;;;;;19.50;4.63;;;5.80;99.90;;;;;;4999839;28;20554;-79
2021/12/28 06:34:39;;;;;;;10.65;6.25;;;5.80;99.90;;;;;;5001428;28;20045;-79
2021/12/28 06:37:05;;;;;;;9.35;6.07;;;5.80;99.90;;;;;;5000289;28;20125;-80
2021/12/28 06:39:31;;;;;;;3.90;3.55;;;5.70;99.90;;;;;;5000363;28;20088;-81
2021/12/28 06:41:58;;;;;;;5.07;4.55;;;5.70;99.90;;;;;;5000237;28;20620;-77
2021/12/28 06:44:23;;;;;;;9.85;6.70;;;5.80;99.90;;;;;;5002287;28;20038;-78
2021/12/28 06:46:50;;;;;;;3.97;3.47;;;5.70;99.90;;;;;;5001439;28;20103;-78
2021/12/28 06:49:16;;;;;;;4.80;4.40;;;5.80;99.90;;;;;;5001063;28;20543;-78
2021/12/28 06:51:42;;;;;;;7.78;5.13;;;5.80;99.90;;;;;;5001720;28;20038;-78
2021/12/28 06:54:08;;;;;;;10.15;6.90;;;5.80;99.90;;;;;;5001006;28;20432;-78
2021/12/28 06:56:33;;;;;;;7.38;6.50;;;5.80;99.90;;;;;;5002077;28;20037;-78
2021/12/28 06:58:59;;;;;;;12.93;5.88;;;5.80;99.90;;;;;;5001583;28;20069;-78
2021/12/28 07:01:24;;;;;;;9.95;6.10;;;5.80;99.90;;;;;;5001115;28;20056;-78
2021/12/28 07:03:51;;;;;;;3.67;3.47;;;5.80;99.90;;;;;;5001123;28;20393;-78
2021/12/28 07:06:17;;;;;;;8.05;4.32;;;5.80;99.90;;;;;;5001642;28;20129;-78
2021/12/28 07:08:43;;;;;;;4.45;3.83;;;5.80;99.90;;;;;;5002177;28;20307;-77
2021/12/28 07:11:09;;;;;;;4.28;3.95;;;5.80;99.90;;;;;;5001378;28;20038;-78
2021/12/28 07:13:35;;;;;;;6.40;5.75;;;5.90;99.90;;;;;;5000560;28;20045;-78
2021/12/28 07:16:00;;;;;;;7.43;4.00;;;5.90;99.90;;;;;;5000583;28;20504;-78
2021/12/28 07:18:26;;;;;;;7.10;4.72;;;6.00;99.90;;;;;;5001743;28;20052;-78
2021/12/28 07:20:52;;;;;;;15.60;5.75;;;6.00;99.90;;;;;;5001350;28;20042;-78
2021/12/28 07:23:18;;;;;;;6.55;5.18;;;6.00;99.90;;;;;;5001784;28;20599;-78
2021/12/28 07:25:44;;;;;;;18.35;6.93;;;6.00;99.90;;;;;;5000290;28;20046;-78
2021/12/28 07:28:10;;;;;;;9.10;3.83;;;6.00;99.90;;;;;;5001333;28;20471;-80
2021/12/28 07:30:35;;;;;;;5.30;4.25;;;6.10;99.90;;;;;;5000978;28;20559;-78
2021/12/28 07:33:01;;;;;;;15.20;4.80;;;6.10;99.90;;;;;;4999655;28;20053;-77
2021/12/28 07:35:26;;;;;;;5.18;4.07;;;6.00;99.90;;;;;;4999923;28;20080;-78
2021/12/28 07:37:53;;;;;;;4.85;4.13;;;6.10;99.90;;;;;;5000300;28;20147;-77
2021/12/28 07:40:21;;;;;;;3.47;2.97;;;6.10;99.90;;;;;;4999340;28;20508;-78
2021/12/28 07:42:46;;;;;;;7.07;3.30;;;6.10;99.90;;;;;;5000445;28;20046;-77
2021/12/28 07:45:14;;;;;;;4.88;4.07;;;6.10;99.90;;;;;;5000092;28;20492;-77
2021/12/28 07:47:42;;;;;;;4.00;3.45;;;6.10;99.90;;;;;;4999250;28;20145;-78
2021/12/28 07:50:09;;;;;;;13.52;3.35;;;6.10;99.90;;;;;;4998930;28;20455;-77
2021/12/28 07:52:36;;;;;;;28.90;5.50;;;6.10;99.90;;;;;;5000427;28;20045;-77
2021/12/28 07:55:04;;;;;;;2.97;2.67;;;6.10;99.90;;;;;;4998420;28;20129;-77
2021/12/28 07:57:31;;;;;;;5.53;4.88;;;6.10;99.90;;;;;;5000031;28;20046;-79
2021/12/28 07:59:56;;;;;;;3.25;3.03;;;6.10;99.90;;;;;;5001021;28;20050;-79
2021/12/28 08:02:22;;;;;;;5.35;4.45;;;6.10;99.90;;;;;;5002494;28;20048;-79
2021/12/28 08:04:48;;;;;;;2.67;2.58;;;6.10;99.90;;;;;;5023185;28;20432;-79
2021/12/28 08:07:13;;;;;;;11.73;4.75;;;6.10;99.90;;;;;;5024272;28;20492;-80
2021/12/28 08:09:39;;;;;;;6.32;3.78;;;6.10;99.90;;;;;;5025345;28;20050;-79
2021/12/28 08:12:05;;;;;;;4.05;2.92;;;6.10;99.90;;;;;;5024612;28;20044;-80
2021/12/28 08:14:30;;;;;;;3.25;2.90;;;6.10;99.90;;;;;;5022295;28;20530;-79
2021/12/28 08:16:56;;;;;;;3.55;3.35;;;6.10;99.90;;;;;;5003889;28;20093;-79
2021/12/28 08:19:21;;;;;;;5.15;3.38;;;6.10;99.90;;;;;;5004894;28;20042;-79
2021/12/28 08:21:47;;;;;;;4.47;3.55;;;6.20;99.90;;;;;;5005392;28;20050;-79
2021/12/28 08:24:13;;;;;;;6.10;4.50;;;6.20;99.90;;;;;;5003416;28;20053;-79
2021/12/28 08:26:39;;;;;;;14.85;3.55;;;6.10;99.90;;;;;;5004381;28;20388;-79
2021/12/28 08:29:04;;;;;;;2.28;2.08;;;6.20;99.90;;;;;;5004639;28;20052;-79
2021/12/28 08:31:30;;;;;;;13.02;3.67;;;6.20;99.90;;;;;;5003889;28;20072;-79
2021/12/28 08:33:56;;;;;;;6.72;4.22;;;6.20;99.90;;;;;;5003938;28;20056;-79
2021/12/28 08:36:22;;;;;;;2.72;2.53;;;6.20;99.90;;;;;;5004826;28;20104;-79
2021/12/28 08:38:47;;;;;;;1.92;1.75;;;6.20;99.90;;;;;;5004660;28;20499;-80
2021/12/28 08:41:13;;;;;;;6.20;1.70;;;6.20;99.90;;;;;;5004318;28;20049;-79
2021/12/28 08:43:39;;;;;;;6.85;3.83;;;6.30;99.90;;;;;;5004621;28;20030;-79
2021/12/28 08:46:05;;;;;;;6.47;4.13;;;6.30;99.90;;;;;;5003093;28;20041;-79
2021/12/28 08:48:30;;;;;;;5.82;2.53;;;6.30;99.90;;;;;;5002767;28;20054;-80
2021/12/28 08:50:56;;;;;;;4.32;3.67;;;6.30;99.90;;;;;;5003662;28;20382;-79
2021/12/28 08:53:22;;;;;;;3.97;3.60;;;6.40;99.90;;;;;;5023712;28;20512;-79
2021/12/28 08:55:47;;;;;;;1.77;1.73;;;6.40;99.90;;;;;;5024580;28;20063;-79
2021/12/28 08:58:14;;;;;;;2.75;2.65;;;6.40;99.90;;;;;;5023747;28;20041;-79
2021/12/28 09:00:40;;;;;;;3.30;3.10;;;6.50;99.90;;;;;;5022980;28;20053;-79
2021/12/28 09:03:06;;;;;;;2.97;2.78;;;6.50;99.90;;;;;;5022042;28;20076;-77
2021/12/28 09:05:32;;;;;;;5.72;2.60;;;6.50;99.90;;;;;;5023929;28;20073;-82
2021/12/28 09:08:00;;;;;;;2.53;2.10;;;6.50;99.90;;;;;;5023501;28;20048;-80
2021/12/28 09:10:26;;;;;;;2.58;2.33;;;6.50;99.90;;;;;;5023638;28;20488;-82
2021/12/28 09:12:53;;;;;;;6.00;2.80;;;6.60;99.90;;;;;;4999130;28;20048;-87
2021/12/28 09:15:19;;;;;;;4.47;2.92;;;6.60;99.90;;;;;;5001579;28;20046;-86
2021/12/28 09:17:44;;;;;;;2.70;2.38;;;6.60;99.90;;;;;;5001022;28;20064;-83
2021/12/28 09:20:16;;;;;;;3.63;2.20;;;6.60;99.90;;;;;;5001329;28;20630;-84
2021/12/28 09:22:43;;;;;;;4.22;2.58;;;6.70;99.90;;;;;;5001488;28;20309;-80
2021/12/28 09:25:09;;;;;;;3.95;3.60;;;6.70;99.90;;;;;;5001554;28;20038;-81
2021/12/28 09:27:35;;;;;;;1.20;1.15;;;6.70;99.90;;;;;;5000660;28;20052;-80
2021/12/28 09:30:02;;;;;;;9.18;4.05;;;6.70;99.90;;;;;;5006774;28;20041;-80
2021/12/28 09:32:27;;;;;;;3.45;3.15;;;6.70;99.90;;;;;;4999807;28;20129;-80
2021/12/28 09:34:55;;;;;;;13.27;2.88;;;6.70;99.90;;;;;;5000420;28;20204;-79
2021/12/28 09:37:20;;;;;;;3.13;2.83;;;6.70;99.90;;;;;;5001931;28;20049;-84
2021/12/28 09:39:47;;;;;;;3.40;2.30;;;6.70;99.90;;;;;;5001134;28;20034;-83
2021/12/28 09:42:13;;;;;;;3.47;2.63;;;6.70;99.90;;;;;;4998523;28;20053;-86
2021/12/28 09:44:38;;;;;;;5.85;2.70;;;6.70;99.90;;;;;;4998733;28;20380;-83
2021/12/28 09:47:05;;;;;;;4.40;2.70;;;6.80;99.90;;;;;;5018774;28;20130;-85
2021/12/28 09:49:32;;;;;;;4.90;3.25;;;6.80;99.90;;;;;;5018765;28;20177;-83
2021/12/28 09:51:59;;;;;;;2.08;1.92;;;6.80;99.90;;;;;;5002618;28;20061;-81
2021/12/28 09:54:27;;;;;;;2.50;1.80;;;6.80;99.90;;;;;;4985088;28;20077;-83
2021/12/28 09:56:55;;;;;;;3.42;2.72;;;6.80;99.90;;;;;;5000979;28;20103;-86
2021/12/28 09:59:21;;;;;;;2.17;1.83;;;6.80;99.90;;;;;;5001777;28;20535;-85
2021/12/28 10:01:47;;;;;;;8.55;4.15;;;6.80;99.90;;;;;;5005279;28;20084;-86
2021/12/28 10:04:13;;;;;;;3.63;2.90;;;6.80;99.90;;;;;;5011867;28;20049;-86
2021/12/28 10:06:39;;;;;;;2.33;2.15;;;6.80;99.90;;;;;;5002369;28;20060;-82
2021/12/28 10:09:09;;;;;;;5.82;2.42;;;6.80;99.90;;;;;;5001312;28;20108;-82
2021/12/28 10:11:42;;;;;;;1.52;1.42;;;6.80;99.90;;;;;;5001734;28;20042;-78
2021/12/28 10:14:24;;;;;;;1.73;1.63;;;6.80;99.90;;;;;;4999829;28;20050;-79
2021/12/28 10:16:53;;;;;;;8.13;3.65;;;6.80;99.90;;;;;;5000020;28;20045;-81
2021/12/28 10:19:39;;;;;;;5.53;2.78;;;6.80;99.90;;;;;;4999430;28;20117;-77
2021/12/28 10:22:31;;;;;;;2.83;2.63;;;6.80;99.90;;;;;;4999197;28;20576;-78
2021/12/28 10:25:01;;;;;;;3.60;3.33;;;6.80;99.90;;;;;;5007385;28;20124;-79
2021/12/28 10:27:29;;;;;;;2.70;2.55;;;6.80;99.90;;;;;;5000653;28;20129;-80
2021/12/28 10:30:08;;;;;;;4.00;3.58;;;6.90;99.90;;;;;;5001330;28;20610;-80
2021/12/28 10:32:34;;;;;;;3.42;2.75;;;6.90;99.90;;;;;;4998753;28;20125;-80
2021/12/28 10:35:04;;;;;;;2.80;2.60;;;6.90;99.90;;;;;;4982566;28;20149;-81
2021/12/28 10:37:34;;;;;;;24.48;4.28;;;6.90;99.90;;;;;;4999767;28;20547;-81
2021/12/28 10:40:01;;;;;;;3.33;2.75;;;7.00;99.90;;;;;;5000425;28;20111;-80
2021/12/28 10:42:37;;;;;;;2.33;1.98;;;6.90;99.90;;;;;;5002144;28;20550;-80
2021/12/28 10:45:05;;;;;;;8.65;3.30;;;7.00;99.90;;;;;;5015933;28;20049;-80
2021/12/28 10:47:30;;;;;;;23.00;4.50;;;7.00;99.90;;;;;;5006874;28;20066;-80
2021/12/28 10:49:57;;;;;;;5.82;3.38;;;7.00;99.90;;;;;;5014475;28;20109;-82
2021/12/28 10:52:29;;;;;;;3.85;3.58;;;7.10;99.90;;;;;;5021900;28;20091;-81
2021/12/28 10:55:24;;;;;;;3.08;2.88;;;7.10;99.90;;;;;;5014981;28;20050;-82
2021/12/28 10:57:50;;;;;;;1.98;1.70;;;7.10;99.90;;;;;;5001092;28;20053;-82
2021/12/28 11:00:43;;;;;;;1.92;1.80;;;7.10;99.90;;;;;;4985920;28;20353;-81
2021/12/28 11:03:17;;;;;;;4.13;3.10;;;7.10;99.90;;;;;;5006970;28;20037;-81
2021/12/28 11:05:51;;;;;;;3.30;3.00;;;7.10;99.90;;;;;;5011325;28;20455;-82
2021/12/28 11:08:18;;;;;;;3.58;2.25;;;7.20;99.90;;;;;;5015041;28;20471;-82
2021/12/28 11:10:48;;;;;;;4.80;3.28;;;7.20;99.90;;;;;;5017948;28;20515;-82
2021/12/28 11:13:14;;;;;;;3.13;2.92;;;7.20;99.90;;;;;;4982027;28;20548;-82
2021/12/28 11:15:45;;;;;;;2.70;2.10;;;7.20;99.90;;;;;;4999300;28;21310;-82
2021/12/28 11:18:33;;;;;;;3.70;1.73;;;7.20;99.90;;;;;;5001422;28;20516;-82
2021/12/28 11:21:09;;;;;;;1.90;1.80;;;7.20;99.90;;;;;;4984354;28;20133;-81
2021/12/28 11:23:34;;;;;;;1.60;1.50;;;7.30;99.90;;;;;;5013918;28;20064;-81
2021/12/28 11:26:16;;;;;;;4.03;1.75;;;7.30;99.90;;;;;;5019731;28;20504;-81
2021/12/28 11:28:51;;;;;;;1.43;1.33;;;7.30;99.90;;;;;;5010292;28;20050;-81
2021/12/28 11:31:20;;;;;;;1.92;1.73;;;7.30;99.90;;;;;;5003710;28;20048;-79
2021/12/28 11:33:53;;;;;;;1.83;1.70;;;7.40;99.90;;;;;;4997502;28;20056;-85
2021/12/28 11:36:23;;;;;;;3.13;2.15;;;7.40;99.90;;;;;;4999718;28;20044;-84
2021/12/28 11:38:49;;;;;;;1.00;0.95;;;7.40;99.90;;;;;;4977244;28;20077;-87
2021/12/28 11:41:15;;;;;;;6.80;1.85;;;7.40;99.90;;;;;;4981534;28;20038;-89
2021/12/28 11:43:42;;;;;;;1.30;1.30;;;7.40;99.90;;;;;;4999027;28;20042;-82
2021/12/28 11:46:09;;;;;;;0.85;0.85;;;7.40;99.90;;;;;;4998191;28;20057;-80
2021/12/28 11:48:36;;;;;;;1.90;1.67;;;7.40;99.90;;;;;;5000151;28;20045;-80
2021/12/28 11:51:02;;;;;;;0.95;0.95;;;7.40;99.90;;;;;;4997027;28;20038;-80
2021/12/28 11:53:28;;;;;;;2.40;1.73;;;7.40;99.90;;;;;;4999516;28;20037;-80
2021/12/28 11:55:58;;;;;;;1.10;1.10;;;7.50;99.90;;;;;;4998551;28;20049;-80
2021/12/28 11:58:50;;;;;;;4.35;1.95;;;7.40;99.90;;;;;;5000320;28;20057;-80
2021/12/28 12:01:44;;;;;;;3.50;1.67;;;7.40;99.90;;;;;;4997798;28;20495;-84
2021/12/28 12:04:30;;;;;;;1.40;1.40;;;7.50;99.90;;;;;;4998818;28;20049;-81
2021/12/28 12:07:10;;;;;;;0.88;0.88;;;7.50;99.90;;;;;;4999216;28;20119;-86
2021/12/28 12:09:54;;;;;;;0.85;0.85;;;7.50;99.90;;;;;;4999874;28;20407;-88
2021/12/28 12:12:21;;;;;;;1.15;1.05;;;7.50;99.90;;;;;;5003337;28;20062;-86
2021/12/28 12:15:00;;;;;;;4.95;1.10;;;7.50;99.90;;;;;;5015704;28;20084;-89
2021/12/28 12:17:34;;;;;;;1.80;1.63;;;7.50;99.90;;;;;;5001057;28;20451;-88
2021/12/28 12:20:09;;;;;;;2.47;1.75;;;7.60;99.90;;;;;;5001702;28;20451;-85
2021/12/28 12:22:38;;;;;;;3.42;2.10;;;7.60;99.90;;;;;;5003929;28;20049;-84
2021/12/28 12:25:05;;;;;;;0.70;0.70;;;7.60;99.90;;;;;;5001682;28;20042;-83
2021/12/28 12:27:42;;;;;;;1.77;1.15;;;7.60;99.90;;;;;;5008634;28;20045;-83
2021/12/28 12:30:17;;;;;;;0.77;0.77;;;7.60;99.90;;;;;;5000747;28;20412;-83
2021/12/28 12:33:06;;;;;;;0.65;0.65;;;7.60;99.90;;;;;;5021762;28;20045;-83
2021/12/28 12:35:57;;;;;;;1.35;0.95;;;7.60;99.90;;;;;;5000877;28;20050;-82
2021/12/28 12:38:23;;;;;;;0.98;0.90;;;7.60;99.90;;;;;;4998581;28;20075;-81
2021/12/28 12:41:12;;;;;;;1.63;1.50;;;7.70;99.90;;;;;;5001463;28;20054;-83
2021/12/28 12:43:44;;;;;;;2.75;1.67;;;7.70;99.90;;;;;;4992369;28;20660;-79
2021/12/28 12:46:12;;;;;;;1.50;1.50;;;7.70;99.90;;;;;;5011438;28;20045;-79
2021/12/28 12:48:39;;;;;;;1.83;1.73;;;7.70;99.90;;;;;;5007017;28;20052;-79
2021/12/28 12:51:44;;;;;;;2.60;1.35;;;7.70;99.90;;;;;;5000914;28;20046;-79
2021/12/28 12:54:24;;;;;;;1.73;1.63;;;7.70;99.90;;;;;;4992985;28;20061;-79
2021/12/28 12:56:50;;;;;;;0.65;0.65;;;7.70;99.90;;;;;;5007195;28;20465;-79
2021/12/28 12:59:38;;;;;;;0.63;0.63;;;7.70;99.90;;;;;;5002028;28;20141;-82
2021/12/28 13:02:08;;;;;;;1.27;0.93;;;7.70;99.90;;;;;;4999739;28;20142;-83
2021/12/28 13:04:34;;;;;;;0.50;0.50;;;7.70;99.90;;;;;;4997350;28;20069;-82